»·PEaware :: UAL576 KSLC-KABQ

UAL576 :: KSLC-KABQ

FLIGHT INFORMATION

Flight Status: Arrived
Operator:
United Airlines
More flights by this operator :: More flights under this callsign
Pilot: Anonymous 8274 (8274)
Aircraft: BOEING 737-200
(B732)
More flights by this aircraft type
Origin: KSLC Salt Lake City Intl
United States
Destination: KABQ Albuquerque Intl Sunport
United States
More flights between these airports :: More routes between these airports
Route: FFU9 HVE J28 BDROC J15 TANER CURLY3
File this flight plan on PilotEdge
Remarks:
Altitude:
(Current/Filed)
31,000ft
Speed:
(Current/Filed)
460kts
Departed: 28-Apr-18 07:35 PM
Arrived: 28-Apr-18 09:03 PM
Distance/Time
Traveled:
428nm/1:28
Distance/Time
To Go:
Arrived

Flight Plot

Page will automatically refresh every two minutes.

Flight plan parsing failed; only flown route is shown


Map Options




Map Legend


Flown Route
Filed Route
Departure Airport
Arrival Airport
Navaid (VOR, NDB)
Fix

Horizontal Profiles

Position Reports

Time Latitude Longitude Heading Altitude Ground
Speed
28-Apr-18 18:58 40.788104 -111.984129 251 4236ft 0kts
28-Apr-18 18:59 40.788104 -111.984129 251 4236ft 0kts
28-Apr-18 19:00 40.788104 -111.984129 251 4236ft 0kts
28-Apr-18 19:01 40.788104 -111.984129 251 4236ft 0kts
28-Apr-18 19:02 40.788104 -111.984129 251 4236ft 0kts
28-Apr-18 19:03 40.788104 -111.984129 251 4236ft 0kts
28-Apr-18 19:04 40.788104 -111.984129 251 4236ft 0kts
28-Apr-18 19:05 40.788104 -111.984129 251 4236ft 0kts
28-Apr-18 19:06 40.788104 -111.984129 251 4236ft 0kts
28-Apr-18 19:07 40.788104 -111.984129 251 4236ft 0kts
28-Apr-18 19:08 40.788104 -111.984129 251 4236ft 0kts
28-Apr-18 19:09 40.788104 -111.984129 251 4236ft 0kts
28-Apr-18 19:10 40.788104 -111.984129 251 4236ft 0kts
28-Apr-18 19:11 40.788104 -111.984129 251 4236ft 0kts
28-Apr-18 19:12 40.788104 -111.984129 251 4236ft 0kts
28-Apr-18 19:13 40.788104 -111.984129 251 4236ft 0kts
28-Apr-18 19:14 40.788104 -111.984129 251 4236ft 0kts
28-Apr-18 19:15 40.788178 -111.983845 251 4236ft 2kts
28-Apr-18 19:16 40.788174 -111.983183 342 4236ft 1kts
28-Apr-18 19:17 40.788139 -111.983170 345 4236ft 0kts
28-Apr-18 19:18 40.788139 -111.983170 345 4236ft 0kts
28-Apr-18 19:19 40.788139 -111.983170 345 4236ft 0kts
28-Apr-18 19:20 40.788140 -111.983170 345 4236ft 0kts
28-Apr-18 19:21 40.789804 -111.982985 79 4236ft 11kts
28-Apr-18 19:22 40.790155 -111.979340 72 4236ft 9kts
28-Apr-18 19:23 40.790225 -111.978705 85 4236ft 0kts
28-Apr-18 19:24 40.790225 -111.978705 85 4236ft 0kts
28-Apr-18 19:25 40.790225 -111.978705 85 4236ft 0kts
28-Apr-18 19:26 40.790263 -111.977973 85 4236ft 12kts
28-Apr-18 19:27 40.793090 -111.977439 355 4236ft 18kts
28-Apr-18 19:28 40.799743 -111.978219 354 4236ft 26kts
28-Apr-18 19:29 40.806722 -111.978589 356 4236ft 20kts
28-Apr-18 19:30 40.807152 -111.978509 33 4236ft 0kts
28-Apr-18 19:31 40.807152 -111.978509 33 4236ft 0kts
28-Apr-18 19:32 40.807441 -111.977687 99 4236ft 9kts
28-Apr-18 19:33 40.806749 -111.976857 175 4236ft 0kts
28-Apr-18 19:34 40.788312 -111.974711 175 4246ft 163kts
28-Apr-18 19:35 40.741028 -111.969386 171 6016ft 176kts
28-Apr-18 19:36 40.683286 -111.957547 171 7523ft 247kts
28-Apr-18 19:37 40.606937 -111.942213 173 9663ft 307kts
28-Apr-18 19:38 40.522428 -111.928870 174 12177ft 339kts
28-Apr-18 19:39 40.429584 -111.923590 184 15454ft 329kts
28-Apr-18 19:40 40.337746 -111.935637 188 17847ft 338kts
28-Apr-18 19:41 40.243303 -111.940778 163 19885ft 355kts
28-Apr-18 19:42 40.170303 -111.847761 141 21562ft 380kts
28-Apr-18 19:43 40.083860 -111.769585 153 23111ft 382kts
28-Apr-18 19:44 39.989490 -111.706042 159 24478ft 388kts
28-Apr-18 19:45 39.892501 -111.645563 156 25730ft 399kts
28-Apr-18 19:46 39.795728 -111.574705 154 26882ft 408kts
28-Apr-18 19:47 39.699000 -111.494983 152 27907ft 416kts
28-Apr-18 19:48 39.601091 -111.413750 152 28831ft 423kts
28-Apr-18 19:49 39.500755 -111.337222 160 29817ft 419kts
28-Apr-18 19:50 39.395949 -111.277196 162 30499ft 423kts
28-Apr-18 19:51 39.287533 -111.218916 162 30828ft 431kts
28-Apr-18 19:52 39.182260 -111.162381 162 30829ft 431kts
28-Apr-18 19:53 39.073092 -111.100729 159 30828ft 433kts
28-Apr-18 19:54 38.969697 -111.032188 157 30809ft 435kts
28-Apr-18 19:55 38.864585 -110.961108 158 30808ft 435kts
28-Apr-18 19:56 38.757430 -110.894445 159 30807ft 436kts
28-Apr-18 19:57 38.647345 -110.829895 163 30809ft 434kts
28-Apr-18 19:58 38.535689 -110.772890 162 30807ft 435kts
28-Apr-18 19:59 38.437411 -110.684516 121 30822ft 462kts
28-Apr-18 20:00 38.433797 -110.519422 83 30808ft 481kts
28-Apr-18 20:01 38.453105 -110.351074 83 30810ft 482kts
28-Apr-18 20:02 38.453629 -110.187588 94 30803ft 479kts
28-Apr-18 20:03 38.449223 -110.017020 94 30751ft 481kts
28-Apr-18 20:04 38.442169 -109.847078 96 30752ft 481kts
28-Apr-18 20:05 38.430807 -109.676812 94 30755ft 484kts
28-Apr-18 20:06 38.422466 -109.505328 89 30758ft 486kts
28-Apr-18 20:07 38.421410 -109.337892 89 30755ft 489kts
28-Apr-18 20:08 38.420642 -109.166174 89 30762ft 490kts
28-Apr-18 20:09 38.420025 -108.992832 89 30982ft 487kts
28-Apr-18 20:10 38.419566 -108.820055 88 30996ft 488kts
28-Apr-18 20:11 38.422325 -108.647600 83 30997ft 489kts
28-Apr-18 20:12 38.415576 -108.478053 118 31014ft 489kts
28-Apr-18 20:13 38.309921 -108.393151 185 31016ft 454kts
28-Apr-18 20:14 38.184988 -108.405575 190 31001ft 452kts
28-Apr-18 20:15 38.066168 -108.418377 190 31001ft 454kts
28-Apr-18 20:16 37.944104 -108.426587 184 31004ft 460kts
28-Apr-18 20:17 37.830804 -108.423828 184 30999ft 461kts
28-Apr-18 20:18 37.703862 -108.395440 168 31056ft 472kts
28-Apr-18 20:19 37.582510 -108.346495 166 31052ft 474kts
28-Apr-18 20:20 37.458055 -108.294964 167 31045ft 473kts
28-Apr-18 20:21 37.333081 -108.244647 167 31046ft 473kts
28-Apr-18 20:22 37.210698 -108.204117 176 31050ft 467kts
28-Apr-18 20:23 37.084141 -108.178317 176 31128ft 465kts
28-Apr-18 20:24 36.958081 -108.152550 176 31088ft 467kts
28-Apr-18 20:25 36.853906 -108.131247 176 31019ft 469kts
28-Apr-18 20:26 36.744667 -108.086856 162 31021ft 474kts
28-Apr-18 20:27 36.631252 -108.005059 151 31021ft 475kts
28-Apr-18 20:28 36.518487 -107.919887 150 31021ft 473kts
28-Apr-18 20:29 36.408747 -107.830862 148 31021ft 473kts
28-Apr-18 20:30 36.299635 -107.742060 149 31022ft 472kts
28-Apr-18 20:31 36.190267 -107.659077 150 31022ft 470kts
28-Apr-18 20:32 36.079879 -107.575776 150 31023ft 470kts
28-Apr-18 20:33 35.972481 -107.494549 150 29776ft 446kts
28-Apr-18 20:34 35.874113 -107.419923 150 27745ft 429kts
28-Apr-18 20:35 35.775373 -107.346166 152 25679ft 413kts
28-Apr-18 20:36 35.679158 -107.278249 152 23613ft 399kts
28-Apr-18 20:37 35.586005 -107.212129 152 21583ft 386kts
28-Apr-18 20:38 35.496033 -107.147626 152 19606ft 373kts
28-Apr-18 20:39 35.408525 -107.084383 152 17654ft 361kts
28-Apr-18 20:40 35.323803 -107.023094 152 15780ft 349kts
28-Apr-18 20:41 35.242609 -106.963135 150 13939ft 338kts
28-Apr-18 20:42 35.167429 -106.908890 150 12081ft 296kts
28-Apr-18 20:43 35.135698 -106.829526 78 9457ft 293kts
28-Apr-18 20:44 35.153048 -106.738656 63 8946ft 255kts
28-Apr-18 20:45 35.199463 -106.692774 341 8988ft 224kts
28-Apr-18 20:46 35.221802 -106.754771 272 8996ft 208kts
28-Apr-18 20:47 35.216692 -106.823546 252 8231ft 202kts
28-Apr-18 20:48 35.200131 -106.888272 244 8004ft 198kts
28-Apr-18 20:49 35.170535 -106.944810 225 8005ft 202kts
28-Apr-18 20:50 35.126119 -106.986265 206 8001ft 202kts
28-Apr-18 20:51 35.073334 -107.007256 188 8001ft 199kts
28-Apr-18 20:52 35.018608 -107.009025 172 8002ft 198kts
28-Apr-18 20:53 34.968086 -106.985324 148 8002ft 196kts
28-Apr-18 20:54 34.923906 -106.947065 130 8002ft 196kts
28-Apr-18 20:55 34.896213 -106.892100 111 8003ft 196kts
28-Apr-18 20:56 34.886324 -106.827689 93 8009ft 196kts
28-Apr-18 20:57 34.902459 -106.772714 40 7733ft 182kts
28-Apr-18 20:58 34.936364 -106.734632 47 7472ft 155kts
28-Apr-18 20:59 34.967426 -106.696955 46 6935ft 160kts
28-Apr-18 21:00 34.996623 -106.661621 46 5984ft 147kts
28-Apr-18 21:01 35.024761 -106.627574 45 5341ft 149kts
28-Apr-18 21:02 35.040343 -106.610844 2 5318ft 11kts
28-Apr-18 21:03 35.041356 -106.610775 3 5318ft 14kts
28-Apr-18 21:04 35.045815 -106.612366 269 5318ft 17kts
28-Apr-18 21:05 35.048044 -106.614216 206 5318ft 10kts

Navigation Log

Ident Type
Flight plan parsing failed, navigation log unavailable